Terminal Aerodrome Forecast
Issued by NWS Sterling, VA

Current Version | Previous Version | Graphics & Text | Print | Product List | Glossary On
Versions: 1 2 3 4 5 6 7 8 9 10 11 12 13 14 15 16 17 18 19 20 21 22 23 24 25 26 27 28 29 30 31 32 33 34
781
FTUS41 KLWX 171659 AAB
TAFIAD
TAF AMD
KIAD 171659Z 1717/1818 VRB03KT P6SM BKN025 BKN200
     FM171800 18006KT P6SM VCTS SCT045CB BKN130
     FM180200 17006KT P6SM SCT045 BKN250
     FM181000 20005KT 3SM BR BKN015 BKN040
     FM181500 21006KT P6SM SCT040 BKN150=

USA.gov is the U.S. government's official web portal to all federal, state and local government web resources and services.